Terminal Aerodrome Forecast
Issued by NWS Des Moines, IA

Home | Current Version | Previous Version | Text Only | Print | Product List | Glossary On
Versions: 1 2 3 4 5 6 7 8 9 10 11 12 13 14 15
000
FTUS43 KDMX 161735
TAFALO
TAF
KALO 161735Z 1618/1718 24008KT P6SM SKC
     FM170100 19005KT P6SM SKC WS020/22035KT
     FM171200 22008KT P6SM SKC=

USA.gov is the U.S. government's official web portal to all federal, state and local government web resources and services.